LFBG/CNG METAR and TAF weather

Enter ICAO airport designator
Station Type Date Time Source
LFBG METAR 2020/11/27 14:30 UTC NOAA

LFBG 271430Z AUTO 14008KT CAVOK 18/10 Q1012 NOSIG


Station Type Date Time Source
LFBG Decoded METAR 2020/11/27 14:30 UTC NOAA

Cognac, France (LFBG) 45-40N 000-19W 31M
Nov 27, 2020 - 09:30 AM EST / 2020.11.27 1430 UTC
Wind: from the SE (140 degrees) at 9 MPH (8 KT):0
Visibility: greater than 7 mile(s):0
Temperature: 64 F (18 C)
Dew Point: 50 F (10 C)
Relative Humidity: 59%
Pressure (altimeter): 29.88 in. Hg (1012 hPa)
ob: LFBG 271430Z AUTO 14008KT CAVOK 18/10 Q1012 NOSIG
cycle: 14

Station Type Date Time Source
LFBG TAF 2020/11/27 09:19 UTC NOAA

TAF LFBG 270800Z 2709/2809 09006KT CAVOK

Example: see airport list